sensor_id;sensor_type;location;lat;lon;timestamp;temperature;humidity
15113;DHT22;7657;50.140;7.076;2023-08-24T00:00:37;22.90;99.90
15113;DHT22;7657;50.140;7.076;2023-08-24T00:03:04;22.90;99.90
15113;DHT22;7657;50.140;7.076;2023-08-24T00:05:33;22.90;99.90
15113;DHT22;7657;50.140;7.076;2023-08-24T00:08:00;22.90;99.90
15113;DHT22;7657;50.140;7.076;2023-08-24T00:10:27;22.90;99.90
15113;DHT22;7657;50.140;7.076;2023-08-24T00:12:55;22.90;99.90
15113;DHT22;7657;50.140;7.076;2023-08-24T00:15:22;22.90;99.90
15113;DHT22;7657;50.140;7.076;2023-08-24T00:17:49;22.90;99.90
15113;DHT22;7657;50.140;7.076;2023-08-24T00:20:16;22.90;99.90
15113;DHT22;7657;50.140;7.076;2023-08-24T00:22:46;22.90;99.90
15113;DHT22;7657;50.140;7.076;2023-08-24T00:25:13;22.90;99.90
15113;DHT22;7657;50.140;7.076;2023-08-24T00:27:40;22.90;99.90
15113;DHT22;7657;50.140;7.076;2023-08-24T00:30:09;22.80;99.90
15113;DHT22;7657;50.140;7.076;2023-08-24T00:32:36;22.80;99.90
15113;DHT22;7657;50.140;7.076;2023-08-24T00:35:04;22.90;99.90
15113;DHT22;7657;50.140;7.076;2023-08-24T00:37:32;22.90;99.90
15113;DHT22;7657;50.140;7.076;2023-08-24T00:40:00;22.90;99.90
15113;DHT22;7657;50.140;7.076;2023-08-24T00:42:28;22.90;99.90
15113;DHT22;7657;50.140;7.076;2023-08-24T00:44:57;22.90;99.90
15113;DHT22;7657;50.140;7.076;2023-08-24T00:47:25;22.90;99.90
15113;DHT22;7657;50.140;7.076;2023-08-24T00:49:52;22.90;99.90
15113;DHT22;7657;50.140;7.076;2023-08-24T00:52:19;22.80;99.90
15113;DHT22;7657;50.140;7.076;2023-08-24T00:54:47;22.80;99.90
15113;DHT22;7657;50.140;7.076;2023-08-24T00:57:14;22.70;99.90
15113;DHT22;7657;50.140;7.076;2023-08-24T00:59:41;22.60;99.90
15113;DHT22;7657;50.140;7.076;2023-08-24T01:02:08;22.50;99.90
15113;DHT22;7657;50.140;7.076;2023-08-24T01:04:37;22.60;99.90
15113;DHT22;7657;50.140;7.076;2023-08-24T01:07:04;22.70;99.90
15113;DHT22;7657;50.140;7.076;2023-08-24T01:09:32;22.70;99.90
15113;DHT22;7657;50.140;7.076;2023-08-24T01:12:04;22.70;99.90
15113;DHT22;7657;50.140;7.076;2023-08-24T01:14:41;22.70;99.90
15113;DHT22;7657;50.140;7.076;2023-08-24T01:17:10;22.70;99.90
15113;DHT22;7657;50.140;7.076;2023-08-24T01:19:42;22.70;99.90
15113;DHT22;7657;50.140;7.076;2023-08-24T01:22:23;22.60;99.90
15113;DHT22;7657;50.140;7.076;2023-08-24T01:25:11;22.70;99.90
15113;DHT22;7657;50.140;7.076;2023-08-24T01:27:40;22.60;99.90
15113;DHT22;7657;50.140;7.076;2023-08-24T01:30:08;22.60;99.90
15113;DHT22;7657;50.140;7.076;2023-08-24T01:32:36;22.60;99.90
15113;DHT22;7657;50.140;7.076;2023-08-24T01:35:05;22.60;99.90
15113;DHT22;7657;50.140;7.076;2023-08-24T01:37:32;22.50;99.90
15113;DHT22;7657;50.140;7.076;2023-08-24T01:40:04;22.50;99.90
15113;DHT22;7657;50.140;7.076;2023-08-24T01:42:35;22.40;99.90
15113;DHT22;7657;50.140;7.076;2023-08-24T01:45:06;22.40;99.90
15113;DHT22;7657;50.140;7.076;2023-08-24T01:47:35;22.30;99.90
15113;DHT22;7657;50.140;7.076;2023-08-24T01:50:04;22.30;99.90
15113;DHT22;7657;50.140;7.076;2023-08-24T01:52:31;22.30;99.90
15113;DHT22;7657;50.140;7.076;2023-08-24T01:54:59;22.30;99.90
15113;DHT22;7657;50.140;7.076;2023-08-24T01:57:26;22.20;99.90
15113;DHT22;7657;50.140;7.076;2023-08-24T01:59:52;22.20;99.90
15113;DHT22;7657;50.140;7.076;2023-08-24T02:02:21;22.10;99.90
15113;DHT22;7657;50.140;7.076;2023-08-24T02:04:48;22.10;99.90
15113;DHT22;7657;50.140;7.076;2023-08-24T02:07:16;22.10;99.90
15113;DHT22;7657;50.140;7.076;2023-08-24T02:09:43;22.10;99.90
15113;DHT22;7657;50.140;7.076;2023-08-24T02:12:10;22.10;99.90
15113;DHT22;7657;50.140;7.076;2023-08-24T02:14:37;22.00;99.90
15113;DHT22;7657;50.140;7.076;2023-08-24T02:17:04;22.00;99.90
15113;DHT22;7657;50.140;7.076;2023-08-24T02:19:32;22.00;99.90
15113;DHT22;7657;50.140;7.076;2023-08-24T02:21:59;22.00;99.90
15113;DHT22;7657;50.140;7.076;2023-08-24T02:24:26;22.00;99.90
15113;DHT22;7657;50.140;7.076;2023-08-24T02:26:52;22.00;99.90
15113;DHT22;7657;50.140;7.076;2023-08-24T02:29:19;22.00;99.90
15113;DHT22;7657;50.140;7.076;2023-08-24T02:31:49;21.90;99.90
15113;DHT22;7657;50.140;7.076;2023-08-24T02:34:16;21.80;99.90
15113;DHT22;7657;50.140;7.076;2023-08-24T02:36:44;21.90;99.90
15113;DHT22;7657;50.140;7.076;2023-08-24T02:39:11;21.90;99.90
15113;DHT22;7657;50.140;7.076;2023-08-24T02:41:38;21.80;99.90
15113;DHT22;7657;50.140;7.076;2023-08-24T02:44:05;21.80;99.90
15113;DHT22;7657;50.140;7.076;2023-08-24T02:46:32;21.90;99.90
15113;DHT22;7657;50.140;7.076;2023-08-24T02:48:58;21.90;99.90
15113;DHT22;7657;50.140;7.076;2023-08-24T02:51:25;21.90;99.90
15113;DHT22;7657;50.140;7.076;2023-08-24T02:53:54;21.90;99.90
15113;DHT22;7657;50.140;7.076;2023-08-24T02:56:20;22.00;99.90
15113;DHT22;7657;50.140;7.076;2023-08-24T02:58:47;22.00;99.90
15113;DHT22;7657;50.140;7.076;2023-08-24T03:01:14;22.00;99.90
15113;DHT22;7657;50.140;7.076;2023-08-24T03:03:41;21.90;99.90
15113;DHT22;7657;50.140;7.076;2023-08-24T03:06:08;21.90;99.90
15113;DHT22;7657;50.140;7.076;2023-08-24T03:08:35;21.90;99.90
15113;DHT22;7657;50.140;7.076;2023-08-24T03:11:04;22.00;99.90
15113;DHT22;7657;50.140;7.076;2023-08-24T03:13:31;21.90;99.90
15113;DHT22;7657;50.140;7.076;2023-08-24T03:16:03;21.90;99.90
15113;DHT22;7657;50.140;7.076;2023-08-24T03:18:30;21.90;99.90
15113;DHT22;7657;50.140;7.076;2023-08-24T03:20:57;21.80;99.90
15113;DHT22;7657;50.140;7.076;2023-08-24T03:23:24;21.80;99.90
15113;DHT22;7657;50.140;7.076;2023-08-24T03:25:51;21.80;99.90
15113;DHT22;7657;50.140;7.076;2023-08-24T03:28:19;21.80;99.90
15113;DHT22;7657;50.140;7.076;2023-08-24T03:30:48;21.80;99.90
15113;DHT22;7657;50.140;7.076;2023-08-24T03:33:15;21.80;99.90
15113;DHT22;7657;50.140;7.076;2023-08-24T03:35:42;21.90;99.90
15113;DHT22;7657;50.140;7.076;2023-08-24T03:38:10;21.80;99.90
15113;DHT22;7657;50.140;7.076;2023-08-24T03:40:36;21.80;99.90
15113;DHT22;7657;50.140;7.076;2023-08-24T03:43:03;21.90;99.90
15113;DHT22;7657;50.140;7.076;2023-08-24T03:45:32;21.70;99.90
15113;DHT22;7657;50.140;7.076;2023-08-24T03:47:58;21.60;99.90
15113;DHT22;7657;50.140;7.076;2023-08-24T03:50:25;21.60;99.90
15113;DHT22;7657;50.140;7.076;2023-08-24T03:52:53;21.50;99.90
15113;DHT22;7657;50.140;7.076;2023-08-24T03:55:20;21.30;99.90
15113;DHT22;7657;50.140;7.076;2023-08-24T03:57:48;21.20;99.90
15113;DHT22;7657;50.140;7.076;2023-08-24T04:00:16;21.20;99.90
15113;DHT22;7657;50.140;7.076;2023-08-24T04:02:44;21.10;99.90
15113;DHT22;7657;50.140;7.076;2023-08-24T04:05:11;21.10;99.90
15113;DHT22;7657;50.140;7.076;2023-08-24T04:07:38;21.00;99.90
15113;DHT22;7657;50.140;7.076;2023-08-24T04:10:07;20.90;99.90
15113;DHT22;7657;50.140;7.076;2023-08-24T04:12:35;20.90;99.90
15113;DHT22;7657;50.140;7.076;2023-08-24T04:15:02;20.90;99.90
15113;DHT22;7657;50.140;7.076;2023-08-24T04:17:29;20.80;99.90
15113;DHT22;7657;50.140;7.076;2023-08-24T04:19:57;20.80;99.90
15113;DHT22;7657;50.140;7.076;2023-08-24T04:22:24;20.80;99.90
15113;DHT22;7657;50.140;7.076;2023-08-24T04:24:51;20.70;99.90
15113;DHT22;7657;50.140;7.076;2023-08-24T04:27:17;20.60;99.90
15113;DHT22;7657;50.140;7.076;2023-08-24T04:29:44;20.70;99.90
15113;DHT22;7657;50.140;7.076;2023-08-24T04:32:11;20.70;99.90
15113;DHT22;7657;50.140;7.076;2023-08-24T04:34:38;20.70;99.90
15113;DHT22;7657;50.140;7.076;2023-08-24T04:37:07;20.80;99.90
15113;DHT22;7657;50.140;7.076;2023-08-24T04:39:34;20.90;99.90
15113;DHT22;7657;50.140;7.076;2023-08-24T04:42:01;21.00;99.90
15113;DHT22;7657;50.140;7.076;2023-08-24T04:44:28;21.00;99.90
15113;DHT22;7657;50.140;7.076;2023-08-24T04:46:55;21.00;99.90
15113;DHT22;7657;50.140;7.076;2023-08-24T04:49:22;21.10;99.90
15113;DHT22;7657;50.140;7.076;2023-08-24T04:51:49;21.10;99.90
15113;DHT22;7657;50.140;7.076;2023-08-24T04:54:17;21.10;99.90
15113;DHT22;7657;50.140;7.076;2023-08-24T04:56:44;21.20;99.90
15113;DHT22;7657;50.140;7.076;2023-08-24T04:59:11;21.20;99.90
15113;DHT22;7657;50.140;7.076;2023-08-24T05:01:38;21.20;99.90
15113;DHT22;7657;50.140;7.076;2023-08-24T05:04:04;21.20;99.90
15113;DHT22;7657;50.140;7.076;2023-08-24T05:06:31;21.20;99.90
15113;DHT22;7657;50.140;7.076;2023-08-24T05:08:58;21.10;99.90
15113;DHT22;7657;50.140;7.076;2023-08-24T05:11:27;21.20;99.90
15113;DHT22;7657;50.140;7.076;2023-08-24T05:13:55;21.20;99.90
15113;DHT22;7657;50.140;7.076;2023-08-24T05:16:22;21.10;99.90
15113;DHT22;7657;50.140;7.076;2023-08-24T05:18:49;20.80;99.90
15113;DHT22;7657;50.140;7.076;2023-08-24T05:21:16;20.70;99.90
15113;DHT22;7657;50.140;7.076;2023-08-24T05:23:43;20.60;99.90
15113;DHT22;7657;50.140;7.076;2023-08-24T05:26:10;20.70;99.90
15113;DHT22;7657;50.140;7.076;2023-08-24T05:28:38;20.80;99.90
15113;DHT22;7657;50.140;7.076;2023-08-24T05:31:05;20.70;99.90
15113;DHT22;7657;50.140;7.076;2023-08-24T05:33:32;20.80;99.90
15113;DHT22;7657;50.140;7.076;2023-08-24T05:35:59;20.80;99.90
15113;DHT22;7657;50.140;7.076;2023-08-24T05:38:26;20.80;99.90
15113;DHT22;7657;50.140;7.076;2023-08-24T05:40:53;20.80;99.90
15113;DHT22;7657;50.140;7.076;2023-08-24T05:43:20;20.70;99.90
15113;DHT22;7657;50.140;7.076;2023-08-24T05:45:48;20.80;99.90
15113;DHT22;7657;50.140;7.076;2023-08-24T05:48:15;20.80;99.90
15113;DHT22;7657;50.140;7.076;2023-08-24T05:50:45;20.80;99.90
15113;DHT22;7657;50.140;7.076;2023-08-24T05:53:13;20.80;99.90
15113;DHT22;7657;50.140;7.076;2023-08-24T05:55:40;20.90;99.90
15113;DHT22;7657;50.140;7.076;2023-08-24T05:58:07;20.90;99.90
15113;DHT22;7657;50.140;7.076;2023-08-24T06:00:34;20.80;99.90
15113;DHT22;7657;50.140;7.076;2023-08-24T06:03:03;20.80;99.90
15113;DHT22;7657;50.140;7.076;2023-08-24T06:05:31;20.70;99.90
15113;DHT22;7657;50.140;7.076;2023-08-24T06:07:58;20.70;99.90
15113;DHT22;7657;50.140;7.076;2023-08-24T06:10:25;20.70;99.90
15113;DHT22;7657;50.140;7.076;2023-08-24T06:12:52;20.70;99.90
15113;DHT22;7657;50.140;7.076;2023-08-24T06:15:19;20.60;99.90
15113;DHT22;7657;50.140;7.076;2023-08-24T06:17:49;20.60;99.90
15113;DHT22;7657;50.140;7.076;2023-08-24T06:20:18;20.70;99.90
15113;DHT22;7657;50.140;7.076;2023-08-24T06:22:45;20.60;99.90
15113;DHT22;7657;50.140;7.076;2023-08-24T06:25:13;20.60;99.90
15113;DHT22;7657;50.140;7.076;2023-08-24T06:27:40;20.70;99.90
15113;DHT22;7657;50.140;7.076;2023-08-24T06:30:07;20.70;99.90
15113;DHT22;7657;50.140;7.076;2023-08-24T06:32:34;20.70;99.90
15113;DHT22;7657;50.140;7.076;2023-08-24T06:35:02;20.70;99.90
15113;DHT22;7657;50.140;7.076;2023-08-24T06:37:31;20.60;99.90
15113;DHT22;7657;50.140;7.076;2023-08-24T06:39:58;20.70;99.90
15113;DHT22;7657;50.140;7.076;2023-08-24T06:42:25;20.70;99.90
15113;DHT22;7657;50.140;7.076;2023-08-24T06:44:52;20.60;99.90
15113;DHT22;7657;50.140;7.076;2023-08-24T06:47:19;20.60;99.90
15113;DHT22;7657;50.140;7.076;2023-08-24T06:49:46;20.70;99.90
15113;DHT22;7657;50.140;7.076;2023-08-24T06:52:13;20.70;99.90
15113;DHT22;7657;50.140;7.076;2023-08-24T06:54:41;20.70;99.90
15113;DHT22;7657;50.140;7.076;2023-08-24T06:57:08;20.70;99.90
15113;DHT22;7657;50.140;7.076;2023-08-24T06:59:35;20.70;99.90
15113;DHT22;7657;50.140;7.076;2023-08-24T07:02:02;20.80;99.90
15113;DHT22;7657;50.140;7.076;2023-08-24T07:04:29;20.80;99.90
15113;DHT22;7657;50.140;7.076;2023-08-24T07:06:57;20.70;99.90
15113;DHT22;7657;50.140;7.076;2023-08-24T07:09:23;20.80;99.90
15113;DHT22;7657;50.140;7.076;2023-08-24T07:11:52;20.80;99.90
15113;DHT22;7657;50.140;7.076;2023-08-24T07:14:19;20.80;99.90
15113;DHT22;7657;50.140;7.076;2023-08-24T07:16:45;20.90;99.90
15113;DHT22;7657;50.140;7.076;2023-08-24T07:19:12;20.90;99.90
15113;DHT22;7657;50.140;7.076;2023-08-24T07:21:39;20.80;99.90
15113;DHT22;7657;50.140;7.076;2023-08-24T07:24:06;20.80;99.90
15113;DHT22;7657;50.140;7.076;2023-08-24T07:26:33;20.70;99.90
15113;DHT22;7657;50.140;7.076;2023-08-24T07:29:01;20.70;99.90
15113;DHT22;7657;50.140;7.076;2023-08-24T07:31:28;20.70;99.90
15113;DHT22;7657;50.140;7.076;2023-08-24T07:33:55;20.70;99.90
15113;DHT22;7657;50.140;7.076;2023-08-24T07:36:22;20.70;99.90
15113;DHT22;7657;50.140;7.076;2023-08-24T07:38:49;20.70;99.90
15113;DHT22;7657;50.140;7.076;2023-08-24T07:41:16;20.80;99.90
15113;DHT22;7657;50.140;7.076;2023-08-24T07:43:44;20.90;99.90
15113;DHT22;7657;50.140;7.076;2023-08-24T07:46:12;20.90;99.90
15113;DHT22;7657;50.140;7.076;2023-08-24T07:48:39;20.90;99.90
15113;DHT22;7657;50.140;7.076;2023-08-24T07:51:07;21.00;99.90
15113;DHT22;7657;50.140;7.076;2023-08-24T07:53:34;21.10;99.90
15113;DHT22;7657;50.140;7.076;2023-08-24T07:56:01;21.10;99.90
15113;DHT22;7657;50.140;7.076;2023-08-24T07:58:28;21.10;99.90
15113;DHT22;7657;50.140;7.076;2023-08-24T08:00:56;21.20;99.90
15113;DHT22;7657;50.140;7.076;2023-08-24T08:03:25;21.30;99.90
15113;DHT22;7657;50.140;7.076;2023-08-24T08:05:52;21.30;99.90
15113;DHT22;7657;50.140;7.076;2023-08-24T08:08:20;21.30;99.90
15113;DHT22;7657;50.140;7.076;2023-08-24T08:10:47;21.30;99.90
15113;DHT22;7657;50.140;7.076;2023-08-24T08:13:14;21.30;99.90
15113;DHT22;7657;50.140;7.076;2023-08-24T08:15:40;21.40;99.90
15113;DHT22;7657;50.140;7.076;2023-08-24T08:18:07;21.40;99.90
15113;DHT22;7657;50.140;7.076;2023-08-24T08:20:36;21.50;99.90
15113;DHT22;7657;50.140;7.076;2023-08-24T08:23:03;21.50;99.90
15113;DHT22;7657;50.140;7.076;2023-08-24T08:25:30;21.60;99.90
15113;DHT22;7657;50.140;7.076;2023-08-24T08:27:56;21.70;99.90
15113;DHT22;7657;50.140;7.076;2023-08-24T08:30:23;21.70;99.90
15113;DHT22;7657;50.140;7.076;2023-08-24T08:32:50;21.80;99.90
15113;DHT22;7657;50.140;7.076;2023-08-24T08:35:18;21.80;99.90
15113;DHT22;7657;50.140;7.076;2023-08-24T08:37:46;21.80;99.90
15113;DHT22;7657;50.140;7.076;2023-08-24T08:40:15;21.80;99.90
15113;DHT22;7657;50.140;7.076;2023-08-24T08:42:42;21.80;99.90
15113;DHT22;7657;50.140;7.076;2023-08-24T08:45:10;21.90;99.90
15113;DHT22;7657;50.140;7.076;2023-08-24T08:47:38;21.90;99.90
15113;DHT22;7657;50.140;7.076;2023-08-24T08:50:07;22.00;99.90
15113;DHT22;7657;50.140;7.076;2023-08-24T08:52:35;22.00;99.90
15113;DHT22;7657;50.140;7.076;2023-08-24T08:55:03;22.00;99.90
15113;DHT22;7657;50.140;7.076;2023-08-24T08:57:32;22.00;99.90
15113;DHT22;7657;50.140;7.076;2023-08-24T08:59:59;22.00;99.90
15113;DHT22;7657;50.140;7.076;2023-08-24T09:02:29;22.10;99.90
15113;DHT22;7657;50.140;7.076;2023-08-24T09:04:57;22.10;99.90
15113;DHT22;7657;50.140;7.076;2023-08-24T09:07:24;22.20;99.90
15113;DHT22;7657;50.140;7.076;2023-08-24T09:09:51;22.20;99.90
15113;DHT22;7657;50.140;7.076;2023-08-24T09:12:20;22.20;99.90
15113;DHT22;7657;50.140;7.076;2023-08-24T09:14:47;22.30;99.90
15113;DHT22;7657;50.140;7.076;2023-08-24T09:17:20;22.30;99.90
15113;DHT22;7657;50.140;7.076;2023-08-24T09:19:50;22.30;99.90
15113;DHT22;7657;50.140;7.076;2023-08-24T09:22:17;22.40;99.90
15113;DHT22;7657;50.140;7.076;2023-08-24T09:24:44;22.50;99.90
15113;DHT22;7657;50.140;7.076;2023-08-24T09:27:15;22.50;99.90
15113;DHT22;7657;50.140;7.076;2023-08-24T09:29:47;22.70;99.90
15113;DHT22;7657;50.140;7.076;2023-08-24T09:32:15;22.70;99.90
15113;DHT22;7657;50.140;7.076;2023-08-24T09:34:42;22.80;99.90
15113;DHT22;7657;50.140;7.076;2023-08-24T09:37:13;22.80;99.90
15113;DHT22;7657;50.140;7.076;2023-08-24T09:39:40;22.90;99.90
15113;DHT22;7657;50.140;7.076;2023-08-24T09:42:07;23.00;99.90
15113;DHT22;7657;50.140;7.076;2023-08-24T09:44:34;23.10;99.90
15113;DHT22;7657;50.140;7.076;2023-08-24T09:47:09;23.20;99.90
15113;DHT22;7657;50.140;7.076;2023-08-24T09:49:36;23.20;99.90
15113;DHT22;7657;50.140;7.076;2023-08-24T09:52:06;23.30;99.90
15113;DHT22;7657;50.140;7.076;2023-08-24T09:54:36;23.30;99.90
15113;DHT22;7657;50.140;7.076;2023-08-24T09:57:06;23.40;99.90
15113;DHT22;7657;50.140;7.076;2023-08-24T09:59:35;23.40;99.90
15113;DHT22;7657;50.140;7.076;2023-08-24T10:02:08;23.50;99.90
15113;DHT22;7657;50.140;7.076;2023-08-24T10:04:39;23.60;99.90
15113;DHT22;7657;50.140;7.076;2023-08-24T10:07:10;23.60;99.90
15113;DHT22;7657;50.140;7.076;2023-08-24T10:09:45;23.70;99.90
15113;DHT22;7657;50.140;7.076;2023-08-24T10:12:15;23.80;99.90
15113;DHT22;7657;50.140;7.076;2023-08-24T10:14:52;23.80;99.90
15113;DHT22;7657;50.140;7.076;2023-08-24T10:17:21;23.90;99.90
15113;DHT22;7657;50.140;7.076;2023-08-24T10:19:50;23.90;99.90
15113;DHT22;7657;50.140;7.076;2023-08-24T10:22:19;24.00;99.90
15113;DHT22;7657;50.140;7.076;2023-08-24T10:24:47;24.10;99.90
15113;DHT22;7657;50.140;7.076;2023-08-24T10:27:14;24.10;99.90
15113;DHT22;7657;50.140;7.076;2023-08-24T10:29:41;24.20;99.90
15113;DHT22;7657;50.140;7.076;2023-08-24T10:32:09;24.20;99.90
15113;DHT22;7657;50.140;7.076;2023-08-24T10:34:37;24.30;99.90
15113;DHT22;7657;50.140;7.076;2023-08-24T10:37:08;24.30;99.90
15113;DHT22;7657;50.140;7.076;2023-08-24T10:39:36;24.40;99.90
15113;DHT22;7657;50.140;7.076;2023-08-24T10:42:04;24.40;99.90
15113;DHT22;7657;50.140;7.076;2023-08-24T10:44:36;24.40;99.90
15113;DHT22;7657;50.140;7.076;2023-08-24T10:47:12;24.40;99.90
15113;DHT22;7657;50.140;7.076;2023-08-24T10:49:41;24.50;99.90
15113;DHT22;7657;50.140;7.076;2023-08-24T10:52:19;24.50;99.90
15113;DHT22;7657;50.140;7.076;2023-08-24T10:54:47;24.60;99.90
15113;DHT22;7657;50.140;7.076;2023-08-24T10:57:19;24.60;99.90
15113;DHT22;7657;50.140;7.076;2023-08-24T10:59:57;24.70;99.90
15113;DHT22;7657;50.140;7.076;2023-08-24T11:02:26;24.70;99.90
15113;DHT22;7657;50.140;7.076;2023-08-24T11:05:17;24.70;99.90
15113;DHT22;7657;50.140;7.076;2023-08-24T11:07:55;24.80;99.90
15113;DHT22;7657;50.140;7.076;2023-08-24T11:10:23;24.80;99.90
15113;DHT22;7657;50.140;7.076;2023-08-24T11:13:12;24.80;99.90
15113;DHT22;7657;50.140;7.076;2023-08-24T11:15:41;24.80;99.90
15113;DHT22;7657;50.140;7.076;2023-08-24T11:18:21;24.90;99.90
15113;DHT22;7657;50.140;7.076;2023-08-24T11:20:51;24.90;99.90
15113;DHT22;7657;50.140;7.076;2023-08-24T11:23:19;24.90;99.90
15113;DHT22;7657;50.140;7.076;2023-08-24T11:25:49;24.90;99.90
15113;DHT22;7657;50.140;7.076;2023-08-24T11:28:17;24.90;99.90
15113;DHT22;7657;50.140;7.076;2023-08-24T11:30:46;24.90;99.90
15113;DHT22;7657;50.140;7.076;2023-08-24T11:33:13;24.90;99.90
15113;DHT22;7657;50.140;7.076;2023-08-24T11:35:42;24.90;99.90
15113;DHT22;7657;50.140;7.076;2023-08-24T11:38:11;24.90;99.90
15113;DHT22;7657;50.140;7.076;2023-08-24T11:40:38;24.80;99.90
15113;DHT22;7657;50.140;7.076;2023-08-24T11:43:05;24.80;99.90
15113;DHT22;7657;50.140;7.076;2023-08-24T11:45:33;24.80;99.90
15113;DHT22;7657;50.140;7.076;2023-08-24T11:48:02;24.70;99.90
15113;DHT22;7657;50.140;7.076;2023-08-24T11:50:30;24.70;99.90
15113;DHT22;7657;50.140;7.076;2023-08-24T11:52:58;24.70;99.90
15113;DHT22;7657;50.140;7.076;2023-08-24T11:55:26;24.70;99.90
15113;DHT22;7657;50.140;7.076;2023-08-24T11:57:53;24.60;99.90
15113;DHT22;7657;50.140;7.076;2023-08-24T12:00:21;24.60;99.90
15113;DHT22;7657;50.140;7.076;2023-08-24T12:02:49;24.50;99.90
15113;DHT22;7657;50.140;7.076;2023-08-24T12:05:23;24.40;99.90
15113;DHT22;7657;50.140;7.076;2023-08-24T12:07:52;24.40;99.90
15113;DHT22;7657;50.140;7.076;2023-08-24T12:10:19;24.40;99.90
15113;DHT22;7657;50.140;7.076;2023-08-24T12:12:48;24.30;99.90
15113;DHT22;7657;50.140;7.076;2023-08-24T12:15:16;24.20;99.90
15113;DHT22;7657;50.140;7.076;2023-08-24T12:17:43;24.10;99.90
15113;DHT22;7657;50.140;7.076;2023-08-24T12:20:18;24.10;99.90
15113;DHT22;7657;50.140;7.076;2023-08-24T12:22:53;23.90;99.90
15113;DHT22;7657;50.140;7.076;2023-08-24T12:25:22;23.60;99.90
15113;DHT22;7657;50.140;7.076;2023-08-24T12:27:51;23.40;99.90
15113;DHT22;7657;50.140;7.076;2023-08-24T12:30:19;23.10;99.90
15113;DHT22;7657;50.140;7.076;2023-08-24T12:32:47;22.90;99.90
15113;DHT22;7657;50.140;7.076;2023-08-24T12:35:16;22.50;99.90
15113;DHT22;7657;50.140;7.076;2023-08-24T12:37:43;22.30;99.90
15113;DHT22;7657;50.140;7.076;2023-08-24T12:40:10;22.10;99.90
15113;DHT22;7657;50.140;7.076;2023-08-24T12:42:38;22.00;99.90
15113;DHT22;7657;50.140;7.076;2023-08-24T12:45:07;21.80;99.90
15113;DHT22;7657;50.140;7.076;2023-08-24T12:47:34;21.70;99.90
15113;DHT22;7657;50.140;7.076;2023-08-24T12:50:05;21.60;99.90
15113;DHT22;7657;50.140;7.076;2023-08-24T12:52:32;21.60;99.90
15113;DHT22;7657;50.140;7.076;2023-08-24T12:54:59;21.50;99.90
15113;DHT22;7657;50.140;7.076;2023-08-24T12:57:26;21.50;99.90
15113;DHT22;7657;50.140;7.076;2023-08-24T12:59:53;21.50;99.90
15113;DHT22;7657;50.140;7.076;2023-08-24T13:02:22;21.40;99.90
15113;DHT22;7657;50.140;7.076;2023-08-24T13:04:49;21.50;99.90
15113;DHT22;7657;50.140;7.076;2023-08-24T13:07:16;21.60;99.90
15113;DHT22;7657;50.140;7.076;2023-08-24T13:09:42;21.60;99.90
15113;DHT22;7657;50.140;7.076;2023-08-24T13:12:09;21.60;99.90
15113;DHT22;7657;50.140;7.076;2023-08-24T13:14:36;21.70;99.90
15113;DHT22;7657;50.140;7.076;2023-08-24T13:17:03;21.60;99.90
15113;DHT22;7657;50.140;7.076;2023-08-24T13:19:31;21.70;99.90
15113;DHT22;7657;50.140;7.076;2023-08-24T13:21:58;21.80;99.90
15113;DHT22;7657;50.140;7.076;2023-08-24T13:24:25;21.80;99.90
15113;DHT22;7657;50.140;7.076;2023-08-24T13:26:52;21.90;99.90
15113;DHT22;7657;50.140;7.076;2023-08-24T13:29:19;22.00;99.90
15113;DHT22;7657;50.140;7.076;2023-08-24T13:31:46;22.00;99.90
15113;DHT22;7657;50.140;7.076;2023-08-24T13:34:13;22.10;99.90
15113;DHT22;7657;50.140;7.076;2023-08-24T13:36:41;22.20;99.90
15113;DHT22;7657;50.140;7.076;2023-08-24T13:39:08;22.30;99.90
15113;DHT22;7657;50.140;7.076;2023-08-24T13:41:36;22.30;99.90
15113;DHT22;7657;50.140;7.076;2023-08-24T13:44:03;22.30;99.90
15113;DHT22;7657;50.140;7.076;2023-08-24T13:46:30;22.40;99.90
15113;DHT22;7657;50.140;7.076;2023-08-24T13:48:57;22.60;99.90
15113;DHT22;7657;50.140;7.076;2023-08-24T13:51:24;22.70;99.90
15113;DHT22;7657;50.140;7.076;2023-08-24T13:53:52;22.70;99.90
15113;DHT22;7657;50.140;7.076;2023-08-24T13:56:19;22.70;99.90
15113;DHT22;7657;50.140;7.076;2023-08-24T13:58:46;22.70;99.90
15113;DHT22;7657;50.140;7.076;2023-08-24T14:01:13;22.70;99.90
15113;DHT22;7657;50.140;7.076;2023-08-24T14:03:40;22.70;99.90
15113;DHT22;7657;50.140;7.076;2023-08-24T14:06:08;22.70;99.90
15113;DHT22;7657;50.140;7.076;2023-08-24T14:08:36;22.60;99.90
15113;DHT22;7657;50.140;7.076;2023-08-24T14:11:04;22.50;99.90
15113;DHT22;7657;50.140;7.076;2023-08-24T14:13:31;22.30;99.90
15113;DHT22;7657;50.140;7.076;2023-08-24T14:15:58;22.30;99.90
15113;DHT22;7657;50.140;7.076;2023-08-24T14:18:25;22.20;99.90
15113;DHT22;7657;50.140;7.076;2023-08-24T14:20:52;22.30;99.90
15113;DHT22;7657;50.140;7.076;2023-08-24T14:23:19;22.20;99.90
15113;DHT22;7657;50.140;7.076;2023-08-24T14:25:46;22.00;99.90
15113;DHT22;7657;50.140;7.076;2023-08-24T14:28:20;22.00;99.90
15113;DHT22;7657;50.140;7.076;2023-08-24T14:30:47;21.70;99.90
15113;DHT22;7657;50.140;7.076;2023-08-24T14:33:14;21.60;99.90
15113;DHT22;7657;50.140;7.076;2023-08-24T14:35:41;21.40;99.90
15113;DHT22;7657;50.140;7.076;2023-08-24T14:38:08;21.40;99.90
15113;DHT22;7657;50.140;7.076;2023-08-24T14:40:35;21.30;99.90
15113;DHT22;7657;50.140;7.076;2023-08-24T14:43:02;21.30;99.90
15113;DHT22;7657;50.140;7.076;2023-08-24T14:45:30;21.20;99.90
15113;DHT22;7657;50.140;7.076;2023-08-24T14:47:57;21.10;99.90
15113;DHT22;7657;50.140;7.076;2023-08-24T14:50:24;21.00;99.90
15113;DHT22;7657;50.140;7.076;2023-08-24T14:52:51;21.00;99.90
15113;DHT22;7657;50.140;7.076;2023-08-24T14:55:18;20.90;99.90
15113;DHT22;7657;50.140;7.076;2023-08-24T14:57:45;20.80;99.90
15113;DHT22;7657;50.140;7.076;2023-08-24T15:00:13;20.70;99.90
15113;DHT22;7657;50.140;7.076;2023-08-24T15:02:41;20.70;99.90
15113;DHT22;7657;50.140;7.076;2023-08-24T15:05:08;20.80;99.90
15113;DHT22;7657;50.140;7.076;2023-08-24T15:07:35;20.80;99.90
15113;DHT22;7657;50.140;7.076;2023-08-24T15:10:02;20.80;99.90
15113;DHT22;7657;50.140;7.076;2023-08-24T15:12:29;20.80;99.90
15113;DHT22;7657;50.140;7.076;2023-08-24T15:14:58;20.80;99.90
15113;DHT22;7657;50.140;7.076;2023-08-24T15:17:25;20.90;99.90
15113;DHT22;7657;50.140;7.076;2023-08-24T15:19:54;20.90;99.90
15113;DHT22;7657;50.140;7.076;2023-08-24T15:22:21;21.00;99.90
15113;DHT22;7657;50.140;7.076;2023-08-24T15:24:48;20.90;99.90
15113;DHT22;7657;50.140;7.076;2023-08-24T15:27:15;20.70;99.90
15113;DHT22;7657;50.140;7.076;2023-08-24T15:29:44;20.50;99.90
15113;DHT22;7657;50.140;7.076;2023-08-24T15:32:11;20.30;99.90
15113;DHT22;7657;50.140;7.076;2023-08-24T15:34:39;20.30;99.90
15113;DHT22;7657;50.140;7.076;2023-08-24T15:37:07;20.30;99.90
15113;DHT22;7657;50.140;7.076;2023-08-24T15:39:36;20.20;99.90
15113;DHT22;7657;50.140;7.076;2023-08-24T15:42:04;20.20;99.90
15113;DHT22;7657;50.140;7.076;2023-08-24T15:44:31;20.10;99.90
15113;DHT22;7657;50.140;7.076;2023-08-24T15:46:58;20.00;99.90
15113;DHT22;7657;50.140;7.076;2023-08-24T15:49:26;20.00;99.90